Terminal Aerodrome Forecast
Issued by NWS Boise, ID

Home | Current Version | Previous Version | Text Only | Print | Product List | Glossary On
Versions: 1 2 3 4 5 6 7 8 9 10 11 12 13 14 15
000
FTUS45 KBOI 221730
TAFBNO
TAF
KBNO 221730Z 2218/2318 25010KT P6SM VCSH SCT035 OVC050
      TEMPO 2218/2220 4SM -SN BR OVC030
     FM222000 29010KT P6SM VCSH BKN080
     FM230100 30012KT P6SM BKN060=

USA.gov is the U.S. government's official web portal to all federal, state and local government web resources and services.